createdAt,value
2023-06-19T00:00:19.868Z,19.79
2023-06-19T00:01:09.970Z,19.79
2023-06-19T00:02:00.005Z,19.79
2023-06-19T00:02:50.179Z,19.79
2023-06-19T00:03:40.288Z,19.79
2023-06-19T00:04:30.464Z,19.79
2023-06-19T00:05:20.332Z,19.79
2023-06-19T00:06:10.399Z,19.78
2023-06-19T00:07:00.463Z,19.78
2023-06-19T00:07:50.549Z,19.79
2023-06-19T00:08:40.541Z,19.78
2023-06-19T00:09:30.600Z,19.79
2023-06-19T00:10:21.044Z,19.78
2023-06-19T00:11:10.847Z,19.79
2023-06-19T00:12:00.819Z,19.78
2023-06-19T00:12:50.898Z,19.78
2023-06-19T00:13:40.919Z,19.79
2023-06-19T00:14:30.939Z,19.78
2023-06-19T00:15:20.974Z,19.79
2023-06-19T00:16:11.167Z,19.78
2023-06-19T00:17:01.227Z,19.80
2023-06-19T00:17:51.397Z,19.80
2023-06-19T00:18:41.941Z,19.79
2023-06-19T00:19:31.392Z,19.79
2023-06-19T00:20:21.717Z,19.79
2023-06-19T00:21:11.535Z,19.79
2023-06-19T00:22:01.552Z,19.79
2023-06-19T00:22:51.682Z,19.79
2023-06-19T00:23:41.720Z,19.79
2023-06-19T00:24:31.893Z,19.79
2023-06-19T00:25:21.829Z,19.79
2023-06-19T00:26:11.906Z,19.79
2023-06-19T00:27:01.941Z,19.79
2023-06-19T00:27:52.024Z,19.78
2023-06-19T00:28:42.018Z,19.79
2023-06-19T00:29:32.090Z,19.78
2023-06-19T00:30:22.572Z,19.79
2023-06-19T00:31:12.318Z,19.78
2023-06-19T00:32:02.297Z,19.78
2023-06-19T00:32:52.379Z,19.78
2023-06-19T00:33:42.386Z,19.76
2023-06-19T00:34:32.520Z,19.77
2023-06-19T00:35:22.492Z,19.78
2023-06-19T00:36:12.665Z,19.78
2023-06-19T00:37:02.631Z,19.78
2023-06-19T00:37:52.711Z,19.79
2023-06-19T00:38:42.698Z,19.78
2023-06-19T00:39:32.856Z,19.79
2023-06-19T00:40:23.049Z,19.79
2023-06-19T00:41:12.904Z,19.78
2023-06-19T00:42:03.074Z,19.78
2023-06-19T00:42:53.153Z,19.78
2023-06-19T00:43:43.154Z,19.78
2023-06-19T00:44:33.199Z,19.78
2023-06-19T00:45:23.236Z,19.78
2023-06-19T00:46:13.421Z,19.78
2023-06-19T00:47:03.335Z,19.79
2023-06-19T00:47:53.470Z,19.79
2023-06-19T00:48:43.513Z,19.79
2023-06-19T00:49:33.647Z,19.79
2023-06-19T00:50:23.881Z,19.79
2023-06-19T00:51:13.692Z,19.78
2023-06-19T00:52:03.715Z,19.78
2023-06-19T00:52:53.841Z,19.79
2023-06-19T00:53:43.793Z,19.79
2023-06-19T00:54:33.890Z,19.79
2023-06-19T00:55:23.977Z,19.79
2023-06-19T00:56:14.033Z,19.79
2023-06-19T00:57:04.112Z,19.79
2023-06-19T00:57:54.290Z,19.79
2023-06-19T00:58:44.182Z,19.79
2023-06-19T00:59:34.338Z,19.78
2023-06-19T01:00:24.442Z,19.79
2023-06-19T01:01:14.403Z,19.79
2023-06-19T01:02:04.652Z,19.78
2023-06-19T01:02:54.835Z,19.79
2023-06-19T01:03:45.098Z,19.79
2023-06-19T01:04:34.847Z,19.79
2023-06-19T01:05:24.818Z,19.79
2023-06-19T01:06:14.926Z,19.78
2023-06-19T01:07:04.970Z,19.78
2023-06-19T01:07:55.082Z,19.78
2023-06-19T01:08:45.068Z,19.79
2023-06-19T01:09:35.241Z,19.80
2023-06-19T01:10:25.482Z,19.80
2023-06-19T01:11:26.128Z,19.79
2023-06-19T01:12:06.329Z,19.78
2023-06-19T01:12:55.419Z,19.78
2023-06-19T01:13:45.444Z,19.79
2023-06-19T01:14:35.597Z,19.80
2023-06-19T01:15:25.561Z,19.79
2023-06-19T01:16:15.783Z,19.79
2023-06-19T01:17:05.737Z,19.79
2023-06-19T01:17:56.061Z,19.79
2023-06-19T01:18:45.986Z,19.79
2023-06-19T01:19:36.117Z,19.79
2023-06-19T01:20:26.318Z,19.79
2023-06-19T01:21:16.177Z,19.79
2023-06-19T01:22:06.198Z,19.79
2023-06-19T01:22:56.342Z,19.78
2023-06-19T01:23:46.292Z,19.77
2023-06-19T01:24:36.622Z,19.77
2023-06-19T01:25:26.400Z,19.77
2023-06-19T01:26:16.510Z,19.77
2023-06-19T01:27:06.510Z,19.77
2023-06-19T01:27:56.588Z,19.76
2023-06-19T01:28:46.583Z,19.77
2023-06-19T01:29:36.727Z,19.76
2023-06-19T01:30:26.770Z,19.77
2023-06-19T01:31:16.750Z,19.76
2023-06-19T01:32:06.746Z,19.77
2023-06-19T01:32:56.958Z,19.77
2023-06-19T01:33:46.981Z,19.77
2023-06-19T01:34:40.691Z,19.77
2023-06-19T01:35:27.053Z,19.77
2023-06-19T01:36:17.194Z,19.77
2023-06-19T01:37:07.183Z,19.77
2023-06-19T01:37:57.314Z,19.77
2023-06-19T01:38:47.316Z,19.78
2023-06-19T01:39:37.385Z,19.78
2023-06-19T01:40:27.550Z,19.77
2023-06-19T01:41:17.648Z,19.78
2023-06-19T01:42:07.661Z,19.78
2023-06-19T01:42:57.720Z,19.77
2023-06-19T01:43:47.775Z,19.77
2023-06-19T01:44:37.833Z,19.77
2023-06-19T01:45:27.851Z,19.78
2023-06-19T01:46:17.996Z,19.78
2023-06-19T01:47:08.024Z,19.78
2023-06-19T01:47:58.191Z,19.78
2023-06-19T01:48:48.135Z,19.77
2023-06-19T01:49:38.278Z,19.78
2023-06-19T01:50:28.272Z,19.79
2023-06-19T01:51:18.321Z,19.79
2023-06-19T01:52:08.358Z,19.78
2023-06-19T01:52:58.504Z,19.78
2023-06-19T01:53:48.537Z,19.77
2023-06-19T01:54:38.619Z,19.78
2023-06-19T01:55:28.619Z,19.79
2023-06-19T01:56:18.674Z,19.79
2023-06-19T01:57:08.705Z,19.79
2023-06-19T01:57:58.872Z,19.79
2023-06-19T01:58:48.860Z,19.79
2023-06-19T01:59:38.977Z,19.79
2023-06-19T02:00:28.995Z,19.79
2023-06-19T02:01:19.138Z,19.79
2023-06-19T02:02:09.152Z,19.78
2023-06-19T02:02:59.427Z,19.78
2023-06-19T02:03:49.288Z,19.79
2023-06-19T02:04:39.315Z,19.79
2023-06-19T02:05:29.339Z,19.79
2023-06-19T02:06:19.470Z,19.78
2023-06-19T02:07:09.445Z,19.79
2023-06-19T02:07:59.527Z,19.79
2023-06-19T02:08:49.518Z,19.79
2023-06-19T02:09:39.648Z,19.79
2023-06-19T02:10:29.637Z,19.79
2023-06-19T02:11:19.803Z,19.79
2023-06-19T02:12:09.789Z,19.79
2023-06-19T02:12:59.872Z,19.79
2023-06-19T02:13:49.885Z,19.79
2023-06-19T02:14:40.024Z,19.79
2023-06-19T02:15:29.947Z,19.79
2023-06-19T02:16:20.142Z,19.79
2023-06-19T02:17:10.122Z,19.79
2023-06-19T02:18:00.306Z,19.79
2023-06-19T02:18:50.202Z,19.79
2023-06-19T02:19:40.333Z,19.79
2023-06-19T02:20:30.344Z,19.79
2023-06-19T02:21:20.395Z,19.80
2023-06-19T02:22:10.430Z,19.80
2023-06-19T02:23:00.563Z,19.79
2023-06-19T02:23:50.547Z,19.79
2023-06-19T02:24:40.933Z,19.80
2023-06-19T02:25:30.737Z,19.80
2023-06-19T02:26:20.826Z,19.79
2023-06-19T02:27:10.822Z,19.79
2023-06-19T02:28:00.900Z,19.79
2023-06-19T02:28:50.891Z,19.79
2023-06-19T02:29:41.028Z,19.79
2023-06-19T02:30:30.979Z,19.79
2023-06-19T02:31:21.179Z,19.79
2023-06-19T02:32:11.174Z,19.79
2023-06-19T02:33:01.353Z,19.80
2023-06-19T02:33:51.271Z,19.79
2023-06-19T02:34:41.362Z,19.79
2023-06-19T02:35:31.358Z,19.79
2023-06-19T02:36:21.406Z,19.79
2023-06-19T02:37:11.449Z,19.79
2023-06-19T02:38:01.694Z,19.78
2023-06-19T02:38:51.621Z,19.79
2023-06-19T02:39:41.705Z,19.79
2023-06-19T02:40:31.743Z,19.79
2023-06-19T02:41:21.857Z,19.79
2023-06-19T02:42:11.813Z,19.78
2023-06-19T02:43:01.931Z,19.78
2023-06-19T02:43:51.929Z,19.79
2023-06-19T02:44:42.152Z,19.78
2023-06-19T02:45:32.172Z,19.79
2023-06-19T02:46:22.246Z,19.79
2023-06-19T02:47:12.215Z,19.79
2023-06-19T02:48:02.359Z,19.78
2023-06-19T02:48:52.338Z,19.78
2023-06-19T02:49:42.502Z,19.78
2023-06-19T02:50:32.442Z,19.77
2023-06-19T02:51:22.550Z,19.78
2023-06-19T02:52:12.586Z,19.78
2023-06-19T02:53:02.714Z,19.77
2023-06-19T02:53:52.709Z,19.78
2023-06-19T02:54:42.845Z,19.79
2023-06-19T02:55:32.805Z,19.78
2023-06-19T02:56:22.937Z,19.78
2023-06-19T02:57:12.877Z,19.78
2023-06-19T02:58:03.064Z,19.78
2023-06-19T02:58:53.054Z,19.78
2023-06-19T02:59:43.186Z,19.78
2023-06-19T03:00:33.131Z,19.78
2023-06-19T03:01:23.253Z,19.78
2023-06-19T03:02:13.253Z,19.77
2023-06-19T03:03:03.478Z,19.78
2023-06-19T03:03:53.329Z,19.78
2023-06-19T03:04:43.449Z,19.78
2023-06-19T03:05:33.460Z,19.77
2023-06-19T03:06:23.570Z,19.78
2023-06-19T03:07:13.566Z,19.78
2023-06-19T03:08:03.642Z,19.78
2023-06-19T03:08:53.637Z,19.78
2023-06-19T03:09:43.766Z,19.79
2023-06-19T03:10:33.713Z,19.79
2023-06-19T03:11:23.917Z,19.78
2023-06-19T03:12:13.908Z,19.78
2023-06-19T03:13:03.986Z,19.78
2023-06-19T03:13:54.017Z,19.79
2023-06-19T03:14:44.106Z,19.79
2023-06-19T03:15:34.095Z,19.79
2023-06-19T03:16:24.179Z,19.78
2023-06-19T03:17:14.244Z,19.79
2023-06-19T03:18:04.543Z,19.79
2023-06-19T03:18:54.390Z,19.78
2023-06-19T03:19:44.553Z,19.78
2023-06-19T03:20:34.612Z,19.79
2023-06-19T03:21:24.607Z,19.79
2023-06-19T03:22:14.598Z,19.78
2023-06-19T03:23:04.699Z,19.78
2023-06-19T03:23:54.692Z,19.79
2023-06-19T03:24:44.940Z,19.79
2023-06-19T03:25:34.955Z,19.79
2023-06-19T03:26:25.054Z,19.78
2023-06-19T03:27:15.039Z,19.78
2023-06-19T03:28:05.128Z,19.79
2023-06-19T03:28:55.120Z,19.79
2023-06-19T03:29:45.242Z,19.79
2023-06-19T03:30:35.228Z,19.79
2023-06-19T03:31:25.392Z,19.79
2023-06-19T03:32:15.441Z,19.79
2023-06-19T03:33:05.595Z,19.79
2023-06-19T03:33:55.528Z,19.79
2023-06-19T03:34:45.581Z,19.79
2023-06-19T03:35:35.597Z,19.79
2023-06-19T03:36:25.757Z,19.80
2023-06-19T03:37:15.723Z,19.79
2023-06-19T03:38:05.817Z,19.79
2023-06-19T03:38:55.799Z,19.79
2023-06-19T03:39:45.924Z,19.79
2023-06-19T03:40:35.917Z,19.80
2023-06-19T03:41:26.073Z,19.80
2023-06-19T03:42:16.065Z,19.79
2023-06-19T03:43:06.150Z,19.79
2023-06-19T03:43:56.149Z,19.79
2023-06-19T03:44:46.271Z,19.80
2023-06-19T03:45:36.216Z,19.79
2023-06-19T03:46:26.347Z,19.80
2023-06-19T03:47:16.303Z,19.80
2023-06-19T03:48:06.542Z,19.79
2023-06-19T03:48:56.432Z,19.79
2023-06-19T03:49:46.622Z,19.79
2023-06-19T03:50:36.950Z,19.79
2023-06-19T03:51:26.659Z,19.79
2023-06-19T03:52:16.766Z,19.79
2023-06-19T03:53:06.738Z,19.79
2023-06-19T03:53:56.775Z,19.79
2023-06-19T03:54:46.860Z,19.79
2023-06-19T03:55:36.897Z,19.79
2023-06-19T03:56:27.009Z,19.79
2023-06-19T03:57:17.040Z,19.79
2023-06-19T03:58:07.210Z,19.79
2023-06-19T03:58:57.188Z,19.80
2023-06-19T03:59:47.300Z,19.80
2023-06-19T04:00:37.250Z,19.79
2023-06-19T04:01:27.457Z,19.79
2023-06-19T04:02:17.357Z,19.79
2023-06-19T04:03:07.658Z,19.78
2023-06-19T04:03:57.492Z,19.79
2023-06-19T04:04:47.537Z,19.79
2023-06-19T04:05:37.563Z,19.79
2023-06-19T04:06:27.687Z,19.79
2023-06-19T04:07:17.678Z,19.79
2023-06-19T04:08:07.790Z,19.79
2023-06-19T04:08:57.757Z,19.79
2023-06-19T04:09:47.883Z,19.79
2023-06-19T04:10:37.867Z,19.79
2023-06-19T04:11:28.026Z,19.78
2023-06-19T04:12:18.019Z,19.78
2023-06-19T04:13:08.251Z,19.78
2023-06-19T04:13:58.153Z,19.79
2023-06-19T04:14:48.260Z,19.79
2023-06-19T04:15:38.262Z,19.78
2023-06-19T04:16:28.393Z,19.79
2023-06-19T04:17:18.414Z,19.79
2023-06-19T04:18:08.599Z,19.78
2023-06-19T04:18:58.545Z,19.79
2023-06-19T04:19:48.673Z,19.78
2023-06-19T04:20:38.619Z,19.79
2023-06-19T04:21:28.714Z,19.78
2023-06-19T04:22:18.716Z,19.79
2023-06-19T04:23:08.892Z,19.79
2023-06-19T04:23:58.907Z,19.80
2023-06-19T04:24:49.018Z,19.79
2023-06-19T04:25:38.954Z,19.79
2023-06-19T04:26:29.057Z,19.79
2023-06-19T04:27:19.093Z,19.79
2023-06-19T04:28:09.240Z,19.79
2023-06-19T04:28:59.185Z,19.79
2023-06-19T04:29:49.357Z,19.79
2023-06-19T04:30:39.297Z,19.79
2023-06-19T04:31:29.412Z,19.79
2023-06-19T04:32:19.493Z,19.79
2023-06-19T04:33:09.761Z,19.79
2023-06-19T04:33:59.524Z,19.79
2023-06-19T04:34:49.698Z,19.78
2023-06-19T04:35:39.642Z,19.79
2023-06-19T04:36:29.745Z,19.79
2023-06-19T04:37:19.773Z,19.79
2023-06-19T04:38:09.926Z,19.79
2023-06-19T04:38:59.919Z,19.79
2023-06-19T04:39:50.082Z,19.79
2023-06-19T04:40:39.999Z,19.79
2023-06-19T04:41:30.086Z,19.78
2023-06-19T04:42:20.124Z,19.79
2023-06-19T04:43:10.264Z,19.79
2023-06-19T04:44:00.213Z,19.79
2023-06-19T04:44:50.382Z,19.79
2023-06-19T04:45:40.337Z,19.79
2023-06-19T04:46:30.493Z,19.79
2023-06-19T04:47:20.489Z,19.80
2023-06-19T04:48:10.677Z,19.80
2023-06-19T04:49:00.526Z,19.80
2023-06-19T04:49:50.628Z,19.77
2023-06-19T04:50:40.646Z,19.79
2023-06-19T04:51:30.789Z,19.79
2023-06-19T04:52:20.749Z,19.80
2023-06-19T04:53:10.848Z,19.81
2023-06-19T04:54:00.872Z,19.80
2023-06-19T04:54:50.973Z,19.79
2023-06-19T04:55:41.125Z,19.80
2023-06-19T04:56:31.112Z,19.80
2023-06-19T04:57:21.102Z,19.79
2023-06-19T04:58:11.294Z,19.79
2023-06-19T04:59:01.243Z,19.79
2023-06-19T04:59:51.412Z,19.80
2023-06-19T05:00:41.448Z,19.80
2023-06-19T05:01:31.622Z,19.80
2023-06-19T05:02:21.559Z,19.80
2023-06-19T05:03:11.676Z,19.80
2023-06-19T05:04:01.737Z,19.80
2023-06-19T05:04:51.799Z,19.78
2023-06-19T05:05:41.763Z,19.79
2023-06-19T05:06:31.907Z,19.79
2023-06-19T05:07:21.882Z,19.80
2023-06-19T05:08:11.986Z,19.80
2023-06-19T05:09:02.106Z,19.80
2023-06-19T05:09:52.201Z,19.80
2023-06-19T05:10:44.333Z,19.81
2023-06-19T05:11:32.379Z,19.80
2023-06-19T05:12:22.336Z,19.80
2023-06-19T05:13:12.534Z,19.80
2023-06-19T05:14:02.468Z,19.81
2023-06-19T05:14:52.562Z,19.81
2023-06-19T05:15:42.615Z,19.81
2023-06-19T05:16:35.151Z,19.81
2023-06-19T05:17:22.954Z,19.80
2023-06-19T05:18:13.022Z,19.80
2023-06-19T05:19:02.954Z,19.81
2023-06-19T05:19:53.094Z,19.81
2023-06-19T05:20:43.088Z,19.81
2023-06-19T05:21:33.249Z,19.82
2023-06-19T05:22:23.402Z,19.81
2023-06-19T05:23:13.536Z,19.82
2023-06-19T05:24:03.547Z,19.82
2023-06-19T05:24:53.641Z,19.81
2023-06-19T05:25:43.635Z,19.82
2023-06-19T05:26:33.792Z,19.81
2023-06-19T05:27:23.756Z,19.82
2023-06-19T05:28:13.874Z,19.82
2023-06-19T05:29:03.899Z,19.82
2023-06-19T05:29:53.996Z,19.81
2023-06-19T05:30:44.019Z,19.82
2023-06-19T05:31:34.136Z,19.81
2023-06-19T05:32:24.190Z,19.82
2023-06-19T05:33:14.313Z,19.82
2023-06-19T05:34:04.260Z,19.82
2023-06-19T05:34:54.360Z,19.82
2023-06-19T05:35:44.390Z,19.82
2023-06-19T05:36:34.487Z,19.83
2023-06-19T05:37:24.510Z,19.82
2023-06-19T05:38:14.970Z,19.82
2023-06-19T05:39:04.911Z,19.82
2023-06-19T05:39:54.981Z,19.82
2023-06-19T05:40:45.018Z,19.82
2023-06-19T05:41:35.130Z,19.83
2023-06-19T05:42:25.123Z,19.83
2023-06-19T05:43:15.233Z,19.82
2023-06-19T05:44:05.200Z,19.82
2023-06-19T05:44:55.427Z,19.83
2023-06-19T05:45:45.412Z,19.83
2023-06-19T05:46:35.473Z,19.84
2023-06-19T05:47:25.497Z,19.84
2023-06-19T05:48:15.600Z,19.83
2023-06-19T05:49:05.558Z,19.83
2023-06-19T05:49:55.670Z,19.83
2023-06-19T05:50:45.726Z,19.83
2023-06-19T05:51:35.817Z,19.83
2023-06-19T05:52:25.808Z,19.83
2023-06-19T05:53:16.101Z,19.83
2023-06-19T05:54:05.917Z,19.83
2023-06-19T05:54:56.044Z,19.83
2023-06-19T05:55:45.981Z,19.83
2023-06-19T05:56:36.062Z,19.83
2023-06-19T05:57:26.059Z,19.84
2023-06-19T05:58:16.331Z,19.83
2023-06-19T05:59:06.304Z,19.83
2023-06-19T05:59:56.454Z,19.83
2023-06-19T06:00:46.446Z,19.83
2023-06-19T06:01:36.546Z,19.83
2023-06-19T06:02:26.518Z,19.83
2023-06-19T06:03:16.581Z,19.83
2023-06-19T06:04:06.613Z,19.83
2023-06-19T06:04:56.822Z,19.83
2023-06-19T06:05:46.731Z,19.83
2023-06-19T06:06:36.848Z,19.83
2023-06-19T06:07:26.825Z,19.82
2023-06-19T06:08:16.925Z,19.80
2023-06-19T06:09:06.965Z,19.81
2023-06-19T06:09:57.043Z,19.82
2023-06-19T06:10:49.948Z,19.82
2023-06-19T06:11:37.189Z,19.81
2023-06-19T06:12:27.186Z,19.82
2023-06-19T06:13:17.262Z,19.82
2023-06-19T06:14:07.293Z,19.82
2023-06-19T06:14:57.408Z,19.83
2023-06-19T06:15:47.403Z,19.83
2023-06-19T06:16:37.607Z,19.83
2023-06-19T06:17:27.666Z,19.83
2023-06-19T06:18:17.810Z,19.83
2023-06-19T06:19:07.817Z,19.83
2023-06-19T06:19:57.830Z,19.83
2023-06-19T06:20:47.865Z,19.83
2023-06-19T06:21:37.974Z,19.83
2023-06-19T06:22:28.082Z,19.84
2023-06-19T06:23:18.150Z,19.83
2023-06-19T06:24:08.187Z,19.84
2023-06-19T06:24:58.270Z,19.84
2023-06-19T06:25:48.276Z,19.84
2023-06-19T06:26:38.325Z,19.83
2023-06-19T06:27:28.353Z,19.83
2023-06-19T06:28:18.497Z,19.83
2023-06-19T06:29:08.489Z,19.83
2023-06-19T06:29:58.617Z,19.83
2023-06-19T06:30:48.682Z,19.83
2023-06-19T06:31:38.769Z,19.84
2023-06-19T06:32:28.806Z,19.83
2023-06-19T06:33:18.938Z,19.83
2023-06-19T06:34:08.951Z,19.84
2023-06-19T06:34:59.054Z,19.83
2023-06-19T06:35:49.040Z,19.83
2023-06-19T06:36:46.503Z,19.83
2023-06-19T06:37:30.163Z,19.82
2023-06-19T06:38:19.319Z,19.82
2023-06-19T06:39:09.236Z,19.83
2023-06-19T06:39:59.406Z,19.82
2023-06-19T06:40:49.362Z,19.83
2023-06-19T06:41:39.450Z,19.83
2023-06-19T06:42:29.433Z,19.83
2023-06-19T06:43:19.825Z,19.82
2023-06-19T06:44:09.815Z,19.83
2023-06-19T06:44:59.947Z,19.83
2023-06-19T06:45:49.958Z,19.83
2023-06-19T06:46:40.304Z,19.83
2023-06-19T06:47:30.103Z,19.83
2023-06-19T06:48:20.180Z,19.83
2023-06-19T06:49:10.164Z,19.83
2023-06-19T06:50:00.340Z,19.83
2023-06-19T06:50:50.239Z,19.84
2023-06-19T06:51:40.345Z,19.83
2023-06-19T06:52:30.368Z,19.83
2023-06-19T06:53:20.512Z,19.84
2023-06-19T06:54:10.456Z,19.83
2023-06-19T06:55:00.529Z,19.83
2023-06-19T06:55:50.564Z,19.83
2023-06-19T06:56:40.786Z,19.83
2023-06-19T06:57:30.774Z,19.84
2023-06-19T06:58:20.867Z,19.83
2023-06-19T06:59:10.845Z,19.84
2023-06-19T07:00:00.982Z,19.83
2023-06-19T07:00:50.950Z,19.83
2023-06-19T07:01:41.018Z,19.83
2023-06-19T07:02:31.153Z,19.83
2023-06-19T07:03:21.303Z,19.83
2023-06-19T07:04:11.190Z,19.83
2023-06-19T07:05:01.323Z,19.84
2023-06-19T07:05:51.266Z,19.83
2023-06-19T07:06:41.381Z,19.83
2023-06-19T07:07:31.404Z,19.83
2023-06-19T07:08:21.554Z,19.83
2023-06-19T07:09:11.501Z,19.83
2023-06-19T07:10:01.567Z,19.82
2023-06-19T07:10:51.593Z,19.82
2023-06-19T07:11:41.730Z,19.83
2023-06-19T07:12:31.693Z,19.83
2023-06-19T07:13:21.804Z,19.80
2023-06-19T07:14:11.823Z,19.81
2023-06-19T07:15:01.913Z,19.81
2023-06-19T07:15:51.923Z,19.82
2023-06-19T07:16:42.092Z,19.82
2023-06-19T07:17:32.104Z,19.82
2023-06-19T07:18:22.260Z,19.82
2023-06-19T07:19:12.222Z,19.82
2023-06-19T07:20:02.656Z,19.82
2023-06-19T07:20:52.603Z,19.82
2023-06-19T07:21:42.706Z,19.82
2023-06-19T07:22:32.735Z,19.83
2023-06-19T07:23:22.884Z,19.82
2023-06-19T07:24:12.844Z,19.82
2023-06-19T07:25:02.911Z,19.82
2023-06-19T07:25:52.930Z,19.82
2023-06-19T07:26:43.083Z,19.82
2023-06-19T07:27:33.051Z,19.82
2023-06-19T07:28:23.228Z,19.83
2023-06-19T07:29:13.171Z,19.82
2023-06-19T07:30:03.342Z,19.82
2023-06-19T07:30:53.298Z,19.83
2023-06-19T07:31:43.392Z,19.82
2023-06-19T07:32:33.450Z,19.82
2023-06-19T07:33:23.578Z,19.81
2023-06-19T07:34:13.901Z,19.82
2023-06-19T07:35:03.591Z,19.82
2023-06-19T07:35:53.612Z,19.82
2023-06-19T07:36:43.735Z,19.81
2023-06-19T07:37:35.828Z,19.82
2023-06-19T07:38:23.815Z,19.81
2023-06-19T07:39:13.839Z,19.80
2023-06-19T07:40:03.932Z,19.81
2023-06-19T07:40:53.952Z,19.81
2023-06-19T07:41:44.077Z,19.82
2023-06-19T07:42:34.052Z,19.82
2023-06-19T07:43:24.275Z,19.81
2023-06-19T07:44:14.226Z,19.82
2023-06-19T07:45:04.373Z,19.82
2023-06-19T07:45:54.344Z,19.81
2023-06-19T07:46:44.442Z,19.81
2023-06-19T07:47:34.430Z,19.81
2023-06-19T07:48:24.625Z,19.81
2023-06-19T07:49:14.558Z,19.81
2023-06-19T07:50:04.733Z,19.82
2023-06-19T07:50:54.656Z,19.82
2023-06-19T07:51:44.762Z,19.82
2023-06-19T07:52:34.794Z,19.81
2023-06-19T07:53:24.941Z,19.82
2023-06-19T07:54:14.892Z,19.81
2023-06-19T07:55:05.062Z,19.81
2023-06-19T07:55:54.998Z,19.81
2023-06-19T07:56:45.115Z,19.82
2023-06-19T07:57:35.143Z,19.82
2023-06-19T07:58:25.287Z,19.82
2023-06-19T07:59:15.512Z,19.82
2023-06-19T08:00:05.615Z,19.82
2023-06-19T08:00:55.652Z,19.82
2023-06-19T08:01:45.757Z,19.83
2023-06-19T08:02:35.818Z,19.83
2023-06-19T08:03:25.993Z,19.83
2023-06-19T08:04:15.941Z,19.82
2023-06-19T08:05:05.964Z,19.82
2023-06-19T08:05:56.096Z,19.81
2023-06-19T08:06:46.213Z,19.82
2023-06-19T08:07:36.145Z,19.81
2023-06-19T08:08:26.289Z,19.81
2023-06-19T08:09:16.280Z,19.82
2023-06-19T08:10:13.193Z,19.82
2023-06-19T08:10:57.481Z,19.80
2023-06-19T08:11:46.565Z,19.81
2023-06-19T08:12:36.555Z,19.82
2023-06-19T08:13:26.722Z,19.81
2023-06-19T08:14:16.655Z,19.82
2023-06-19T08:15:06.736Z,19.82
2023-06-19T08:15:56.765Z,19.82
2023-06-19T08:16:47.144Z,19.82
2023-06-19T08:17:37.140Z,19.83
2023-06-19T08:18:27.168Z,19.82
2023-06-19T08:19:17.196Z,19.80
2023-06-19T08:20:07.295Z,19.82
2023-06-19T08:20:57.304Z,19.82
2023-06-19T08:21:47.473Z,19.82
2023-06-19T08:22:37.415Z,19.82
2023-06-19T08:23:27.508Z,19.82
2023-06-19T08:24:17.555Z,19.82
2023-06-19T08:25:07.639Z,19.83
2023-06-19T08:25:57.656Z,19.82
2023-06-19T08:26:47.779Z,19.82
2023-06-19T08:27:37.778Z,19.82
2023-06-19T08:28:27.958Z,19.82
2023-06-19T08:29:17.911Z,19.82
2023-06-19T08:30:08.088Z,19.82
2023-06-19T08:30:58.009Z,19.82
2023-06-19T08:31:48.115Z,19.83
2023-06-19T08:32:38.576Z,19.82
2023-06-19T08:33:28.504Z,19.82
2023-06-19T08:34:18.461Z,19.82
2023-06-19T08:35:08.622Z,19.83
2023-06-19T08:35:58.565Z,19.82
2023-06-19T08:36:48.666Z,19.82
2023-06-19T08:37:38.733Z,19.82
2023-06-19T08:38:28.844Z,19.82
2023-06-19T08:39:18.957Z,19.82
2023-06-19T08:40:09.068Z,19.82
2023-06-19T08:40:59.105Z,19.83
2023-06-19T08:41:49.217Z,19.83
2023-06-19T08:42:39.247Z,19.83
2023-06-19T08:43:29.393Z,19.82
2023-06-19T08:44:19.366Z,19.82
2023-06-19T08:45:09.512Z,19.83
2023-06-19T08:45:59.525Z,19.82
2023-06-19T08:46:49.674Z,19.82
2023-06-19T08:47:39.687Z,19.83
2023-06-19T08:48:30.054Z,19.82
2023-06-19T08:49:19.989Z,19.82
2023-06-19T08:50:10.185Z,19.82
2023-06-19T08:51:00.107Z,19.82
2023-06-19T08:51:50.208Z,19.83
2023-06-19T08:52:40.241Z,19.82
2023-06-19T08:53:30.414Z,19.82
2023-06-19T08:54:20.392Z,19.82
2023-06-19T08:55:10.506Z,19.82
2023-06-19T08:56:00.468Z,19.82
2023-06-19T08:56:50.590Z,19.82
2023-06-19T08:57:40.702Z,19.83
2023-06-19T08:58:30.745Z,19.82
2023-06-19T08:59:20.679Z,19.82
2023-06-19T09:00:10.870Z,19.82
2023-06-19T09:01:00.801Z,19.82
2023-06-19T09:01:51.107Z,19.81
2023-06-19T09:02:41.213Z,19.82
2023-06-19T09:03:31.372Z,19.82
2023-06-19T09:04:21.263Z,19.82
2023-06-19T09:05:11.299Z,19.81
2023-06-19T09:06:01.374Z,19.82
2023-06-19T09:06:51.436Z,19.82
2023-06-19T09:07:41.450Z,19.83
2023-06-19T09:08:31.627Z,19.83
2023-06-19T09:09:21.646Z,19.83
2023-06-19T09:10:11.754Z,19.82
2023-06-19T09:11:01.736Z,19.83
2023-06-19T09:11:51.897Z,19.82
2023-06-19T09:12:41.878Z,19.83
2023-06-19T09:13:32.079Z,19.82
2023-06-19T09:14:22.019Z,19.82
2023-06-19T09:15:12.184Z,19.83
2023-06-19T09:16:02.133Z,19.83
2023-06-19T09:16:52.233Z,19.83
2023-06-19T09:17:42.300Z,19.83
2023-06-19T09:18:32.426Z,19.83
2023-06-19T09:19:22.360Z,19.83
2023-06-19T09:20:12.534Z,19.83
2023-06-19T09:21:02.525Z,19.83
2023-06-19T09:21:52.683Z,19.83
2023-06-19T09:22:42.625Z,19.83
2023-06-19T09:23:32.762Z,19.83
2023-06-19T09:24:22.789Z,19.83
2023-06-19T09:25:12.946Z,19.82
2023-06-19T09:26:02.880Z,19.82
2023-06-19T09:26:53.026Z,19.82
2023-06-19T09:27:43.009Z,19.83
2023-06-19T09:28:33.114Z,19.83
2023-06-19T09:29:23.133Z,19.83
2023-06-19T09:30:13.217Z,19.83
2023-06-19T09:31:03.259Z,19.83
2023-06-19T09:31:54.390Z,19.82
2023-06-19T09:32:43.384Z,19.82
2023-06-19T09:33:33.606Z,19.83
2023-06-19T09:34:23.485Z,19.83
2023-06-19T09:35:13.659Z,19.83
2023-06-19T09:36:03.616Z,19.83
2023-06-19T09:36:53.707Z,19.84
2023-06-19T09:37:43.738Z,19.83
2023-06-19T09:38:33.889Z,19.83
2023-06-19T09:39:23.882Z,19.84
2023-06-19T09:40:14.003Z,19.83
2023-06-19T09:41:03.999Z,19.83
2023-06-19T09:41:54.072Z,19.84
2023-06-19T09:42:44.061Z,19.83
2023-06-19T09:43:34.133Z,19.82
2023-06-19T09:44:24.167Z,19.83
2023-06-19T09:45:14.250Z,19.83
2023-06-19T09:46:04.256Z,19.82
2023-06-19T09:46:54.413Z,19.83
2023-06-19T09:47:45.769Z,19.83
2023-06-19T09:48:34.469Z,19.82
2023-06-19T09:49:24.577Z,19.82
2023-06-19T09:50:14.693Z,19.83
2023-06-19T09:51:04.712Z,19.82
2023-06-19T09:51:55.144Z,19.82
2023-06-19T09:52:45.090Z,19.83
2023-06-19T09:53:35.216Z,19.82
2023-06-19T09:54:25.218Z,19.82
2023-06-19T09:55:15.337Z,19.83
2023-06-19T09:56:05.329Z,19.82
2023-06-19T09:56:55.519Z,19.83
2023-06-19T09:57:45.427Z,19.82
2023-06-19T09:58:35.569Z,19.83
2023-06-19T09:59:25.565Z,19.83
2023-06-19T10:00:15.682Z,19.82
2023-06-19T10:01:05.992Z,19.83
2023-06-19T10:01:56.170Z,19.83
2023-06-19T10:02:46.233Z,19.83
2023-06-19T10:03:36.256Z,19.82
2023-06-19T10:04:26.166Z,19.82
2023-06-19T10:05:16.344Z,19.82
2023-06-19T10:06:06.276Z,19.83
2023-06-19T10:06:56.379Z,19.82
2023-06-19T10:07:46.544Z,19.82
2023-06-19T10:08:36.665Z,19.82
2023-06-19T10:09:26.650Z,19.82
2023-06-19T10:10:16.776Z,19.83
2023-06-19T10:11:06.798Z,19.82
2023-06-19T10:11:56.925Z,19.82
2023-06-19T10:12:46.899Z,19.83
2023-06-19T10:13:37.001Z,19.83
2023-06-19T10:14:27.078Z,19.83
2023-06-19T10:15:17.237Z,19.83
2023-06-19T10:16:07.216Z,19.82
2023-06-19T10:16:57.408Z,19.84
2023-06-19T10:17:47.404Z,19.83
2023-06-19T10:18:37.552Z,19.83
2023-06-19T10:19:27.494Z,19.83
2023-06-19T10:20:17.672Z,19.83
2023-06-19T10:21:07.658Z,19.83
2023-06-19T10:21:59.389Z,19.84
2023-06-19T10:22:47.759Z,19.82
2023-06-19T10:23:38.278Z,19.82
2023-06-19T10:24:28.191Z,19.83
2023-06-19T10:25:18.321Z,19.84
2023-06-19T10:26:08.512Z,19.84
2023-06-19T10:26:58.678Z,19.84
2023-06-19T10:27:48.647Z,19.84
2023-06-19T10:28:38.754Z,19.84
2023-06-19T10:29:28.978Z,19.84
2023-06-19T10:30:19.138Z,19.84
2023-06-19T10:31:08.855Z,19.84
2023-06-19T10:31:58.921Z,19.84
2023-06-19T10:32:49.088Z,19.85
2023-06-19T10:33:39.196Z,19.84
2023-06-19T10:34:29.143Z,19.85
2023-06-19T10:35:19.316Z,19.85
2023-06-19T10:36:09.259Z,19.84
2023-06-19T10:36:59.361Z,19.84
2023-06-19T10:37:49.406Z,19.84
2023-06-19T10:38:39.547Z,19.84
2023-06-19T10:39:29.699Z,19.84
2023-06-19T10:40:19.759Z,19.84
2023-06-19T10:41:09.767Z,19.83
2023-06-19T10:41:59.917Z,19.84
2023-06-19T10:42:49.862Z,19.84
2023-06-19T10:43:40.013Z,19.84
2023-06-19T10:44:29.941Z,19.84